Eendracht — PDVN — position and weather

sailwx.info

Track history (hours):
 
Tides and Currents Weather Stations Pressure Air Temp Water Temp Dewpoint Dewpoint Depression Visibility Wind Speed Wind Dir Waves Ship Positions

Eendracht (Netherlands)

Last reported at 2019-Aug-24 19:52 UTC. Time now 2019-Aug-24 20:06 UTC.
Position N 52°36' E 003°36'.

Length 59 m; beam 12 m; draft 5 m.

Type: Sailing vessel. MMSI: 244543000.

Date/timePositionNaut miles runAvg speedWind from/ knotsBaromVisibWave heightAir tempDewpointWater temp
2019-Aug-24 19:52N 52°36' E 003°36'4 5.0
2019-Aug-24 19:08N 52°38' E 003°32'1 4.4
2019-Aug-24 19:00N 52°39' E 003°31'2 3.3
2019-Aug-24 18:30N 52°40' E 003°30'3 5.3
2019-Aug-24 18:00N 52°38' E 003°32'2 4.6
2019-Aug-24 17:30N 52°36' E 003°35'2 4.7
2019-Aug-24 17:00N 52°35' E 003°38'3 5.1
2019-Aug-24 16:30N 52°34' E 003°41'3 5.6
2019-Aug-24 16:00N 52°32' E 003°45'3 5.8
2019-Aug-24 15:30N 52°31' E 003°50'3 5.9
2019-Aug-24 15:00N 52°29' E 003°54'3 5.6
2019-Aug-24 14:30N 52°27' E 003°57'2 4.7
2019-Aug-24 14:00N 52°26' E 004°00'2 3.2
2019-Aug-24 13:30N 52°25' E 004°02'1 2.8
2019-Aug-24 13:00N 52°24' E 004°04'1 2.6
2019-Aug-24 12:30N 52°23' E 004°05'2 3.1
2019-Aug-24 12:00N 52°21' E 004°06'2 4.4
2019-Aug-24 11:30N 52°20' E 004°09'2 3.7
2019-Aug-24 11:00N 52°18' E 004°11'1 2.5
2019-Aug-24 10:30N 52°18' E 004°12'1 2.6
2019-Aug-24 10:00N 52°16' E 004°13'1 2.3
2019-Aug-24 09:30N 52°15' E 004°14'2 4.6
2019-Aug-24 09:00N 52°13' E 004°14'2 4.2
2019-Aug-24 08:30N 52°11' E 004°14'3 5.5
2019-Aug-24 08:00N 52°08' E 004°13'2 4.5
2019-Aug-24 07:30N 52°07' E 004°11'2 3.5
2019-Aug-24 07:00N 52°05' E 004°09'2 4.1
2019-Aug-24 06:30N 52°04' E 004°07'2 3.9
2019-Aug-24 06:00N 52°03' E 004°04'3 5.6
2019-Aug-24 05:30N 52°00' E 004°04'0 0.1
2019-Aug-24 04:58N 52°00' E 004°04'0 0.0
2019-Aug-24 04:31N 52°00' E 004°04'0 0.0
2019-Aug-24 04:01N 51°60' E 004°04'0 0.0
2019-Aug-24 03:31N 51°60' E 004°04'0 0.0
2019-Aug-24 03:00N 51°60' E 004°04'0 0.0
2019-Aug-24 02:30N 51°60' E 004°04'0 0.0
2019-Aug-24 02:00N 51°60' E 004°04'0 0.0
2019-Aug-24 01:30N 51°60' E 004°04'0 0.0
2019-Aug-24 01:00N 51°60' E 004°04'0 0.0
2019-Aug-24 00:30N 51°60' E 004°04'0 0.0
2019-Aug-24 00:00N 51°60' E 004°04'0 0.0
2019-Aug-23 23:30N 51°60' E 004°04'0 0.0
2019-Aug-23 23:00N 51°60' E 004°04'0 0.0
2019-Aug-23 22:30N 51°60' E 004°04'0 0.1
2019-Aug-23 22:00N 52°00' E 004°04'1 2.0
2019-Aug-23 21:30N 51°59' E 004°05'4 8.9
2019-Aug-23 21:00N 51°57' E 004°11'4 8.2
2019-Aug-23 20:30N 51°54' E 004°16'4 7.7
2019-Aug-23 20:00N 51°54' E 004°23'3 5.6
2019-Aug-23 19:30N 51°54' E 004°27'0 0.0
2019-Aug-23 18:59N 51°54' E 004°27'0 0.0
2019-Aug-23 18:29N 51°54' E 004°27'0 0.0
2019-Aug-23 17:59N 51°54' E 004°27'0 0.0
2019-Aug-23 17:29N 51°54' E 004°27'0 0.0
2019-Aug-23 16:56N 51°54' E 004°27'0 0.0
2019-Aug-23 16:29N 51°54' E 004°27'0 0.0
2019-Aug-23 15:59N 51°54' E 004°27'0 0.0
2019-Aug-23 15:29N 51°54' E 004°27'0 0.0
2019-Aug-23 15:00N 51°54' E 004°27'0 0.0
2019-Aug-23 14:28N 51°54' E 004°27'0 0.0
2019-Aug-23 13:58N 51°54' E 004°27'0 0.0
2019-Aug-23 13:28N 51°54' E 004°27'0 0.0
2019-Aug-23 12:58N 51°54' E 004°27'0 0.0
2019-Aug-23 12:28N 51°54' E 004°27'0 0.0
2019-Aug-23 11:58N 51°54' E 004°27'0 0.0
2019-Aug-23 11:28N 51°54' E 004°27'0 0.0
2019-Aug-23 10:58N 51°54' E 004°27'0 0.0
2019-Aug-23 10:28N 51°54' E 004°27'0 0.0
2019-Aug-23 09:58N 51°54' E 004°27'0 0.0
2019-Aug-23 09:28N 51°54' E 004°27'0 0.0
2019-Aug-23 08:55N 51°54' E 004°27'0 0.0
2019-Aug-23 08:28N 51°54' E 004°27'0 0.0
2019-Aug-23 07:58N 51°54' E 004°27'0 0.0
2019-Aug-23 07:28N 51°54' E 004°27'0 0.0
2019-Aug-23 06:58N 51°54' E 004°27'0 0.0
2019-Aug-23 06:28N 51°54' E 004°27'0 0.0
2019-Aug-23 05:58N 51°54' E 004°27'0 0.0
2019-Aug-23 05:28N 51°54' E 004°27'0 0.0
2019-Aug-23 04:58N 51°54' E 004°27'0 0.0
2019-Aug-23 04:28N 51°54' E 004°27'0 0.0
2019-Aug-23 03:59N 51°54' E 004°27'0 0.0
2019-Aug-23 03:31N 51°54' E 004°27'0 0.0
2019-Aug-23 03:00N 51°54' E 004°27'0 0.0
2019-Aug-23 02:31N 51°54' E 004°27'0 0.0
2019-Aug-23 02:01N 51°54' E 004°27'0 0.0
2019-Aug-23 01:30N 51°54' E 004°27'0 0.0
2019-Aug-23 01:01N 51°54' E 004°27'0 0.0
2019-Aug-23 00:31N 51°54' E 004°27'0 0.0
2019-Aug-23 00:00N 51°54' E 004°27'0 0.0
2019-Aug-22 23:31N 51°54' E 004°27'0 0.0
2019-Aug-22 23:01N 51°54' E 004°27'0 0.0
2019-Aug-22 22:31N 51°54' E 004°27'0 0.0
2019-Aug-22 22:00N 51°54' E 004°27'0 0.0
2019-Aug-22 21:31N 51°54' E 004°27'0 0.0
2019-Aug-22 21:01N 51°54' E 004°27'0 0.0
2019-Aug-22 20:31N 51°54' E 004°27'0 0.0
2019-Aug-22 20:01N 51°54' E 004°27'0 0.0
2019-Aug-22 19:31N 51°54' E 004°27'0 0.0
2019-Aug-22 19:01N 51°54' E 004°27'0 0.0
2019-Aug-22 18:31N 51°54' E 004°27'0 0.0
2019-Aug-22 18:00N 51°54' E 004°27'0 0.0
2019-Aug-22 17:31N 51°54' E 004°27'1 2.2
2019-Aug-22 17:00N 51°54' E 004°26'2 3.3
2019-Aug-22 16:31N 51°54' E 004°28'0 0.5
2019-Aug-22 16:00N 51°54' E 004°28'0 0.7
2019-Aug-22 15:30N 51°54' E 004°27'0 0.0
2019-Aug-22 15:00N 51°54' E 004°27'0 0.0
2019-Aug-22 14:30N 51°54' E 004°27'0 0.0
2019-Aug-22 14:00N 51°54' E 004°27'0 0.0
2019-Aug-22 13:30N 51°54' E 004°27'0 0.0
2019-Aug-22 13:00N 51°54' E 004°27'0 0.0
2019-Aug-22 12:30N 51°54' E 004°27'0 0.0
2019-Aug-22 12:00N 51°54' E 004°27'0 0.0
2019-Aug-22 11:30N 51°54' E 004°27'0 0.0
2019-Aug-22 11:00N 51°54' E 004°27'0 0.0
2019-Aug-22 10:30N 51°54' E 004°27'0 0.0
2019-Aug-22 10:00N 51°54' E 004°27'0 0.0
2019-Aug-22 09:30N 51°54' E 004°27'2 4.5
2019-Aug-22 09:00N 51°54' E 004°24'3 5.6
2019-Aug-22 08:30N 51°54' E 004°19'3 5.6
2019-Aug-22 08:00N 51°55' E 004°15'3 5.9
2019-Aug-22 07:30N 51°57' E 004°11'3 6.5
2019-Aug-22 07:00N 51°58' E 004°07'3 5.9
2019-Aug-22 06:31N 51°60' E 004°03'2 4.7
2019-Aug-22 06:00N 52°02' E 004°05'2 4.1
2019-Aug-22 05:30N 52°03' E 004°07'2 4.3
2019-Aug-22 05:00N 52°05' E 004°10'2 4.5
2019-Aug-22 04:30N 52°06' E 004°12'2 3.9
2019-Aug-22 04:01N 52°06' E 004°15'0 0.8
2019-Aug-22 03:29N 52°06' E 004°16'0 0.0
2019-Aug-22 02:59N 52°06' E 004°16'0 0.0
2019-Aug-22 02:29N 52°06' E 004°16'0 0.0
2019-Aug-22 01:59N 52°06' E 004°16'0 0.0
2019-Aug-22 01:29N 52°06' E 004°16'0 0.0
2019-Aug-22 00:58N 52°06' E 004°16'0 0.0
2019-Aug-22 00:28N 52°06' E 004°16'0 0.0
2019-Aug-21 23:58N 52°06' E 004°16'0 0.0
2019-Aug-21 23:28N 52°06' E 004°16'0 0.0
2019-Aug-21 22:58N 52°06' E 004°16'0 0.0
2019-Aug-21 22:28N 52°06' E 004°16'0 0.0
2019-Aug-21 21:58N 52°06' E 004°16'0 0.0
2019-Aug-21 21:28N 52°06' E 004°16'0 0.0
2019-Aug-21 20:58N 52°06' E 004°16'0 0.0
2019-Aug-21 20:28N 52°06' E 004°16'0 0.0
2019-Aug-21 19:58N 52°06' E 004°16'0 0.0
2019-Aug-21 19:28N 52°06' E 004°16'0 0.0
2019-Aug-21 18:58N 52°06' E 004°16'0 0.0
2019-Aug-21 18:28N 52°06' E 004°16'0 0.0
2019-Aug-21 17:58N 52°06' E 004°16'0 0.0
2019-Aug-21 17:28N 52°06' E 004°16'0 0.0
2019-Aug-21 16:58N 52°06' E 004°16'0 0.0
2019-Aug-21 16:28N 52°06' E 004°16'0 0.0
2019-Aug-21 15:58N 52°06' E 004°16'0 0.0
2019-Aug-21 15:28N 52°06' E 004°16'0 0.0
2019-Aug-21 14:28N 52°06' E 004°16'0 0.0
2019-Aug-21 13:58N 52°06' E 004°16'0 0.0
2019-Aug-21 13:28N 52°06' E 004°16'0 0.0
2019-Aug-21 12:58N 52°06' E 004°16'0 0.0
2019-Aug-21 12:28N 52°06' E 004°16'0 0.0
2019-Aug-21 11:58N 52°06' E 004°16'0 0.0
2019-Aug-21 11:28N 52°06' E 004°16'0 0.0
2019-Aug-21 10:58N 52°06' E 004°16'0 0.0
2019-Aug-21 10:28N 52°06' E 004°16'0 0.0
2019-Aug-21 09:58N 52°06' E 004°16'0 0.0
2019-Aug-21 09:28N 52°06' E 004°16'0 0.1
2019-Aug-21 09:00N 52°06' E 004°16'2 3.8
2019-Aug-21 08:31N 52°08' E 004°16'1 2.2
2019-Aug-21 08:00N 52°08' E 004°14'3 5.6
2019-Aug-21 07:30N 52°11' E 004°12'3 5.1
2019-Aug-21 07:00N 52°13' E 004°10'3 6.3
2019-Aug-21 06:31N 52°14' E 004°05'3 6.4
2019-Aug-21 06:00N 52°15' E 004°00'3 5.8
2019-Aug-21 05:30N 52°16' E 003°56'3 6.6
2019-Aug-21 05:00N 52°17' E 003°51'4 7.2
2019-Aug-21 04:30N 52°17' E 003°45'4 7.2
2019-Aug-21 04:00N 52°18' E 003°39'4 7.0
2019-Aug-21 03:29N 52°18' E 003°33'3 6.8
2019-Aug-21 02:58N 52°18' E 003°27'3 6.6
2019-Aug-21 02:29N 52°18' E 003°22'3 6.4
2019-Aug-21 02:00N 52°18' E 003°17'3 6.1
2019-Aug-21 01:30N 52°18' E 003°12'11 6.0
2019-Aug-20 23:43N 52°19' E 002°55'2 6.2
2019-Aug-20 23:27N 52°19' E 002°52'3 6.2
2019-Aug-20 23:00N 52°20' E 002°48'3 6.3
2019-Aug-20 22:30N 52°20' E 002°43'3 6.5
2019-Aug-20 22:00N 52°20' E 002°37'3 6.5
2019-Aug-20 21:30N 52°21' E 002°32'3 6.6
2019-Aug-20 21:00N 52°21' E 002°27'3 6.6
2019-Aug-20 20:30N 52°20' E 002°21'3 6.4
2019-Aug-20 20:00N 52°20' E 002°16'3 6.1
2019-Aug-20 19:30N 52°20' E 002°11'3 5.8
2019-Aug-20 19:00N 52°20' E 002°06'3 5.6
2019-Aug-20 18:30N 52°20' E 002°02'2 4.2
2019-Aug-20 18:00N 52°19' E 001°58'1 2.6
2019-Aug-20 17:30N 52°19' E 001°56'3 5.1
2019-Aug-20 17:00N 52°19' E 001°52'4 7.2
2019-Aug-20 16:30N 52°19' E 001°46'3 6.0
2019-Aug-20 16:00N 52°18' E 001°41'0 0.0
2019-Aug-20 15:30N 52°18' E 001°41'0 0.0
2019-Aug-20 15:00N 52°18' E 001°41'0 0.1
2019-Aug-20 14:30N 52°18' E 001°41'0 0.0
2019-Aug-20 14:00N 52°18' E 001°41'0 0.1
2019-Aug-20 13:30N 52°18' E 001°41'0 0.1
2019-Aug-20 13:00N 52°18' E 001°41'0 0.0
2019-Aug-20 12:30N 52°18' E 001°41'0 0.0
2019-Aug-20 12:00N 52°18' E 001°41'0 0.0
2019-Aug-20 11:30N 52°18' E 001°41'0 0.0
2019-Aug-20 11:00N 52°18' E 001°41'0 0.0
2019-Aug-20 10:30N 52°18' E 001°41'0 0.0
2019-Aug-20 10:00N 52°18' E 001°41'0 0.1
2019-Aug-20 09:30N 52°18' E 001°41'0 0.0
2019-Aug-20 09:00N 52°18' E 001°41'0 0.1
2019-Aug-20 08:27N 52°18' E 001°41'0 0.1
2019-Aug-20 08:00N 52°18' E 001°41'0 0.0
2019-Aug-20 07:30N 52°18' E 001°41'0 0.0
2019-Aug-20 06:57N 52°18' E 001°41'0 0.0
2019-Aug-20 06:27N 52°18' E 001°41'0 0.0
2019-Aug-20 06:00N 52°18' E 001°41'0 0.0
2019-Aug-20 05:30N 52°18' E 001°41'0 0.0
2019-Aug-20 05:00N 52°18' E 001°41'0 0.0
2019-Aug-20 04:30N 52°18' E 001°41'0 0.0
2019-Aug-20 04:00N 52°18' E 001°41'0 0.0
2019-Aug-20 03:27N 52°18' E 001°41'0 0.0
2019-Aug-20 03:00N 52°18' E 001°41'0 0.0
2019-Aug-20 02:30N 52°18' E 001°41'0 0.0
2019-Aug-20 01:57N 52°18' E 001°41'0 0.1
2019-Aug-20 01:30N 52°18' E 001°41'0 0.1
2019-Aug-20 01:00N 52°18' E 001°41'0 0.0
2019-Aug-20 00:30N 52°18' E 001°41'0 0.0
2019-Aug-20 00:00N 52°18' E 001°41'0 0.0
2019-Aug-19 23:30N 52°18' E 001°41'0 0.0
2019-Aug-19 23:00N 52°18' E 001°41'0 0.0
2019-Aug-19 22:27N 52°18' E 001°41'0 0.0
2019-Aug-19 22:00N 52°18' E 001°41'0 0.6
2019-Aug-19 21:30N 52°18' E 001°42'4 8.5
2019-Aug-19 21:01N 52°22' E 001°45'5 9.2
2019-Aug-19 20:30N 52°26' E 001°48'4 8.1
2019-Aug-19 20:00N 52°30' E 001°51'4 7.3
2019-Aug-19 19:30N 52°33' E 001°53'3 7.0
2019-Aug-19 19:00N 52°37' E 001°54'3 6.3
2019-Aug-19 18:30N 52°40' E 001°55'3 6.0
2019-Aug-19 18:00N 52°43' E 001°55'3 5.9
2019-Aug-19 17:30N 52°46' E 001°54'3 6.3
2019-Aug-19 17:00N 52°49' E 001°53'3 6.2
2019-Aug-19 16:30N 52°52' E 001°53'3 5.5
2019-Aug-19 16:00N 52°55' E 001°52'3 6.0
2019-Aug-19 15:30N 52°58' E 001°52'3 5.8
2019-Aug-19 15:00N 53°01' E 001°52'1 2.7
2019-Aug-19 14:30N 53°02' E 001°53'1 2.0
2019-Aug-19 14:00N 53°03' E 001°53'0 0.7
2019-Aug-19 13:30N 53°03' E 001°53'1 2.2
2019-Aug-19 13:00N 53°04' E 001°52'1 3.0
2019-Aug-19 12:30N 53°06' E 001°51'2 3.9
2019-Aug-19 12:00N 53°08' E 001°51'3 5.1
2019-Aug-19 11:30N 53°10' E 001°50'3 6.1
2019-Aug-19 11:00N 53°13' E 001°49'4 7.7
2019-Aug-19 10:30N 53°17' E 001°48'4 7.7
2019-Aug-19 10:00N 53°21' E 001°46'4 7.8
2019-Aug-19 09:26N 53°25' E 001°44'4 1.6
2019-Aug-19 06:33N 53°29' E 001°46'1 7.4
2019-Aug-19 06:23N 53°28' E 001°47'3 6.9
2019-Aug-19 05:57N 53°26' E 001°51'3 6.1
2019-Aug-19 05:30N 53°24' E 001°54'3 6.6
2019-Aug-19 05:00N 53°22' E 001°58'3 5.9
2019-Aug-19 04:30N 53°20' E 002°01'3 6.5
2019-Aug-19 04:00N 53°17' E 002°05'4 7.7
2019-Aug-19 03:28N 53°14' E 002°10'4 7.9
2019-Aug-19 02:58N 53°12' E 002°14'4 8.1
2019-Aug-19 02:29N 53°09' E 002°19'47 7.8
2019-Aug-18 20:30N 52°37' E 003°15'4 7.7
2019-Aug-18 20:00N 52°35' E 003°21'4 8.0
2019-Aug-18 19:29N 52°32' E 003°26'4 8.3
2019-Aug-18 19:00N 52°30' E 003°32'4 8.1
2019-Aug-18 18:29N 52°27' E 003°37'3 6.5
2019-Aug-18 18:00N 52°25' E 003°40'3 6.7
2019-Aug-18 17:30N 52°23' E 003°44'3 6.8
2019-Aug-18 17:00N 52°20' E 003°48'4 7.5
2019-Aug-18 16:30N 52°17' E 003°52'4 8.9
2019-Aug-18 16:00N 52°13' E 003°53'4 8.4
2019-Aug-18 15:30N 52°09' E 003°55'4 7.2
2019-Aug-18 15:00N 52°05' E 003°57'2 4.5
2019-Aug-18 14:30N 52°03' E 003°58'2 3.7
2019-Aug-18 14:00N 52°02' E 004°00'2 3.6
2019-Aug-18 13:30N 52°00' E 004°02'3 6.5
2019-Aug-18 13:00N 51°59' E 004°07'4 7.6
2019-Aug-18 12:30N 51°57' E 004°12'4 8.1
2019-Aug-18 12:00N 51°54' E 004°17'4 7.0
2019-Aug-18 11:30N 51°54' E 004°23'3 5.5
2019-Aug-18 10:58N 51°54' E 004°27'0 0.0
2019-Aug-18 10:28N 51°54' E 004°27'0 0.0
2019-Aug-18 09:58N 51°54' E 004°27'0 0.0
2019-Aug-18 09:28N 51°54' E 004°27'0 0.0
2019-Aug-18 08:58N 51°54' E 004°27'0 0.0
2019-Aug-18 08:28N 51°54' E 004°27'0 0.0
2019-Aug-18 07:59N 51°54' E 004°27'0 0.0
2019-Aug-18 06:59N 51°54' E 004°27'0 0.0
2019-Aug-18 06:29N 51°54' E 004°27'0 0.0
2019-Aug-18 05:59N 51°54' E 004°27'0 0.0
2019-Aug-18 05:29N 51°54' E 004°27'0 0.0
2019-Aug-18 04:59N 51°54' E 004°27'0 0.0
2019-Aug-18 04:29N 51°54' E 004°27'0 0.0
2019-Aug-18 03:59N 51°54' E 004°27'0 0.0
2019-Aug-18 03:29N 51°54' E 004°27'0 0.0
2019-Aug-18 02:59N 51°54' E 004°27'0 0.0
2019-Aug-18 02:29N 51°54' E 004°27'0 0.0
2019-Aug-18 01:59N 51°54' E 004°27'0 0.0
2019-Aug-18 01:29N 51°54' E 004°27'0 0.0
2019-Aug-18 00:59N 51°54' E 004°27'0 0.0
2019-Aug-18 00:28N 51°54' E 004°27'0 0.0
2019-Aug-17 23:58N 51°54' E 004°27'0 0.0
2019-Aug-17 23:28N 51°54' E 004°27'0 0.0
2019-Aug-17 22:58N 51°54' E 004°27'0 0.0
2019-Aug-17 22:28N 51°54' E 004°27'0 0.0
2019-Aug-17 21:58N 51°54' E 004°27'0 0.0
2019-Aug-17 21:28N 51°54' E 004°27'0 0.0
2019-Aug-17 20:58N 51°54' E 004°27'0 0.0
2019-Aug-17 20:28N 51°54' E 004°27'0 0.0
2019-Aug-17 19:58N 51°54' E 004°27'0 0.0
2019-Aug-17 19:28N 51°54' E 004°27'0 0.0
2019-Aug-17 18:58N 51°54' E 004°27'0 0.0
2019-Aug-17 18:28N 51°54' E 004°27'0 0.0
2019-Aug-17 17:00N 51°54' E 004°27'1 2.6
2019-Aug-17 16:31N 51°54' E 004°25'3 6.9
2019-Aug-17 16:00N 51°54' E 004°20'4 8.2
2019-Aug-17 15:30N 51°55' E 004°14'4 8.6
2019-Aug-17 15:01N 51°58' E 004°08'4 8.0
2019-Aug-17 14:31N 51°60' E 004°03'2 3.2
2019-Aug-17 14:00N 52°02' E 004°03'2 4.6
2019-Aug-17 13:31N 52°02' E 003°59'3 6.6
2019-Aug-17 13:01N 52°03' E 003°54'0 0.3
2019-Aug-17 12:31N 52°03' E 003°54'2 4.2
2019-Aug-17 12:01N 52°02' E 003°57'2 4.6
2019-Aug-17 11:31N 52°01' E 004°00'2 3.5
2019-Aug-17 11:00N 52°01' E 004°03'2 4.1
2019-Aug-17 10:31N 51°59' E 004°05'4 8.3
2019-Aug-17 10:00N 51°57' E 004°11'4 8.2
2019-Aug-17 09:31N 51°54' E 004°16'3 6.5
2019-Aug-17 09:00N 51°54' E 004°21'3 6.2
2019-Aug-17 08:30N 51°54' E 004°26'1 1.5
2019-Aug-17 07:58N 51°54' E 004°27'0 0.0
2019-Aug-17 07:28N 51°54' E 004°27'0 0.0
2019-Aug-17 06:58N 51°54' E 004°27'0 0.0
2019-Aug-17 06:28N 51°54' E 004°27'0 0.0
2019-Aug-17 05:58N 51°54' E 004°27'0 0.0
2019-Aug-17 05:28N 51°54' E 004°27'0 0.0
2019-Aug-17 04:58N 51°54' E 004°27'0 0.0
2019-Aug-17 04:28N 51°54' E 004°27'0 0.0
2019-Aug-17 03:58N 51°54' E 004°27'0 0.0
2019-Aug-17 03:28N 51°54' E 004°27'0 0.0
2019-Aug-17 02:58N 51°54' E 004°27'0 0.0
2019-Aug-17 02:28N 51°54' E 004°27'0 0.0
2019-Aug-17 01:58N 51°54' E 004°27'0 0.0
2019-Aug-17 01:28N 51°54' E 004°27'0 0.0
2019-Aug-17 00:58N 51°54' E 004°27'0 0.0
2019-Aug-17 00:28N 51°54' E 004°27'0 0.0
2019-Aug-16 23:58N 51°54' E 004°27'0 0.0
2019-Aug-16 23:28N 51°54' E 004°27'0 0.0
2019-Aug-16 22:58N 51°54' E 004°27'0 0.0
2019-Aug-16 22:28N 51°54' E 004°27'0 0.0
2019-Aug-16 21:58N 51°54' E 004°27'0 0.0
2019-Aug-16 21:28N 51°54' E 004°27'0 0.0
2019-Aug-16 20:58N 51°54' E 004°27'0 0.0
2019-Aug-16 20:28N 51°54' E 004°27'0 0.0
2019-Aug-16 19:58N 51°54' E 004°27'0 0.0
2019-Aug-16 19:28N 51°54' E 004°27'0 0.0
2019-Aug-16 18:58N 51°54' E 004°27'0 0.0
2019-Aug-16 18:28N 51°54' E 004°27'0 0.0
2019-Aug-16 17:58N 51°54' E 004°27'0 0.0
2019-Aug-16 17:28N 51°54' E 004°27'0 0.0
2019-Aug-16 17:01N 51°54' E 004°27'0 0.0
2019-Aug-16 16:31N 51°54' E 004°27'0 0.0
2019-Aug-16 16:00N 51°54' E 004°27'0 0.0
2019-Aug-16 15:30N 51°54' E 004°27'0 0.0
2019-Aug-16 15:00N 51°54' E 004°27'0 0.0
2019-Aug-16 14:30N 51°54' E 004°27'0 0.0
2019-Aug-16 14:00N 51°54' E 004°27'0 0.0
2019-Aug-16 13:30N 51°54' E 004°27'0 0.0
2019-Aug-16 12:57N 51°54' E 004°27'0 0.0
2019-Aug-16 12:27N 51°54' E 004°27'0 0.0
2019-Aug-16 12:00N 51°54' E 004°27'0 0.0
2019-Aug-16 11:30N 51°54' E 004°27'0 0.0
2019-Aug-16 11:00N 51°54' E 004°27'0 0.0
2019-Aug-16 10:30N 51°54' E 004°27'0 0.4
2019-Aug-16 10:01N 51°54' E 004°27'2 4.1
2019-Aug-16 09:30N 51°54' E 004°24'3 6.7
2019-Aug-16 09:00N 51°54' E 004°18'3 6.2
2019-Aug-16 08:30N 51°55' E 004°14'2 4.0
2019-Aug-16 08:00N 51°56' E 004°12'2 3.3
2019-Aug-16 07:30N 51°57' E 004°09'2 3.7
2019-Aug-16 07:00N 51°58' E 004°07'2 4.7
2019-Aug-16 06:30N 51°59' E 004°03'2 4.3
2019-Aug-16 06:00N 52°02' E 004°04'3 5.5
2019-Aug-16 05:30N 52°03' E 004°08'2 4.9
2019-Aug-16 05:00N 52°05' E 004°11'2 4.3
2019-Aug-16 04:30N 52°06' E 004°13'1 2.9
2019-Aug-16 04:00N 52°06' E 004°16'0 0.0
2019-Aug-16 03:30N 52°06' E 004°16'0 0.0
2019-Aug-16 03:00N 52°06' E 004°16'0 0.0
2019-Aug-16 02:30N 52°06' E 004°16'0 0.0
2019-Aug-16 02:00N 52°06' E 004°16'0 0.0
2019-Aug-16 01:30N 52°06' E 004°16'0 0.0
2019-Aug-16 01:00N 52°06' E 004°16'0 0.0
2019-Aug-16 00:30N 52°06' E 004°16'0 0.0
2019-Aug-16 00:00N 52°06' E 004°16'0 0.0
2019-Aug-15 23:30N 52°06' E 004°16'0 0.0
2019-Aug-15 23:00N 52°06' E 004°16'0 0.0
2019-Aug-15 22:30N 52°06' E 004°16'0 0.0
2019-Aug-15 22:00N 52°06' E 004°16'0 0.0
2019-Aug-15 21:30N 52°06' E 004°16'0 0.0
2019-Aug-15 21:00N 52°06' E 004°16'0 0.0
2019-Aug-15 20:30N 52°06' E 004°16'0 0.0
2019-Aug-15 20:00N 52°06' E 004°16'0 0.0
2019-Aug-15 19:30N 52°06' E 004°16'0 0.0
2019-Aug-15 19:00N 52°06' E 004°16'0 0.0
2019-Aug-15 18:30N 52°06' E 004°16'0 0.0
2019-Aug-15 18:00N 52°06' E 004°16'0 0.0
2019-Aug-15 17:30N 52°06' E 004°16'0 0.0
2019-Aug-15 17:00N 52°06' E 004°16'0 0.0
2019-Aug-15 16:30N 52°06' E 004°16'0 0.0
2019-Aug-15 16:00N 52°06' E 004°16'0 0.0
2019-Aug-15 15:30N 52°06' E 004°16'0 0.0
2019-Aug-15 15:00N 52°06' E 004°16'0 0.0
2019-Aug-15 14:30N 52°06' E 004°16'0 0.0
2019-Aug-15 14:00N 52°06' E 004°16'0 0.0
2019-Aug-15 13:30N 52°06' E 004°16'0 0.0
2019-Aug-15 13:00N 52°06' E 004°16'0 0.0
2019-Aug-15 12:31N 52°06' E 004°16'3 6.1
2019-Aug-15 12:00N 52°05' E 004°11'3 5.3
2019-Aug-15 11:30N 52°04' E 004°07'2 4.4
2019-Aug-15 11:00N 52°06' E 004°06'4 8.6
2019-Aug-15 10:30N 52°10' E 004°03'4 8.7
2019-Aug-15 10:00N 52°14' E 003°59'4 8.0
2019-Aug-15 09:31N 52°17' E 003°56'4 7.4
2019-Aug-15 09:01N 52°20' E 003°51'4 7.4
2019-Aug-15 08:30N 52°22' E 003°47'4 7.7
2019-Aug-15 08:00N 52°25' E 003°42'4 7.8
2019-Aug-15 07:30N 52°27' E 003°37'4 7.5
2019-Aug-15 06:59N 52°30' E 003°32'4 7.3
2019-Aug-15 06:30N 52°32' E 003°29'6 1.9
2019-Aug-15 03:11N 52°35' E 003°19'2 5.0
2019-Aug-15 02:51N 52°34' E 003°21'2 5.8
2019-Aug-15 02:28N 52°32' E 003°23'3 6.0
2019-Aug-15 01:59N 52°30' E 003°26'3 6.2
2019-Aug-15 01:30N 52°27' E 003°29'3 5.6
2019-Aug-15 01:00N 52°25' E 003°31'3 6.0
2019-Aug-15 00:30N 52°23' E 003°35'3 6.6
2019-Aug-15 00:00N 52°21' E 003°38'4 7.7
2019-Aug-14 23:30N 52°18' E 003°43'4 7.3
2019-Aug-14 23:00N 52°16' E 003°49'4 7.1
2019-Aug-14 22:30N 52°15' E 003°54'4 8.2
2019-Aug-14 22:00N 52°14' E 004°00'4 8.0
2019-Aug-14 21:30N 52°13' E 004°07'2 4.8
2019-Aug-14 21:00N 52°13' E 004°10'3 6.4
2019-Aug-14 20:30N 52°13' E 004°05'3 6.6
2019-Aug-14 20:00N 52°13' E 003°60'  
Track history (hours):
 
Tides and Currents Weather Stations Pressure Air Temp Water Temp Dewpoint Dewpoint Depression Visibility Wind Speed Wind Dir Waves Ship Positions

Eendracht (Netherlands)

Last reported at 2019-Aug-24 19:52 UTC. Time now 2019-Aug-24 20:06 UTC.
Position N 52°36' E 003°36'.

Length 59 m; beam 12 m; draft 5 m.

Type: Sailing vessel. MMSI: 244543000.

Date/timePositionNaut miles runAvg speedWind from/ knotsBaromVisibWave heightAir tempDewpointWater temp
2019-Aug-24 19:52N 52°36' E 003°36'4 5.0
2019-Aug-24 19:08N 52°38' E 003°32'1 4.4
2019-Aug-24 19:00N 52°39' E 003°31'2 3.3
2019-Aug-24 18:30N 52°40' E 003°30'3 5.3
2019-Aug-24 18:00N 52°38' E 003°32'2 4.6
2019-Aug-24 17:30N 52°36' E 003°35'2 4.7
2019-Aug-24 17:00N 52°35' E 003°38'3 5.1
2019-Aug-24 16:30N 52°34' E 003°41'3 5.6
2019-Aug-24 16:00N 52°32' E 003°45'3 5.8
2019-Aug-24 15:30N 52°31' E 003°50'3 5.9
2019-Aug-24 15:00N 52°29' E 003°54'3 5.6
2019-Aug-24 14:30N 52°27' E 003°57'2 4.7
2019-Aug-24 14:00N 52°26' E 004°00'2 3.2
2019-Aug-24 13:30N 52°25' E 004°02'1 2.8
2019-Aug-24 13:00N 52°24' E 004°04'1 2.6
2019-Aug-24 12:30N 52°23' E 004°05'2 3.1
2019-Aug-24 12:00N 52°21' E 004°06'2 4.4
2019-Aug-24 11:30N 52°20' E 004°09'2 3.7
2019-Aug-24 11:00N 52°18' E 004°11'1 2.5
2019-Aug-24 10:30N 52°18' E 004°12'1 2.6
2019-Aug-24 10:00N 52°16' E 004°13'1 2.3
2019-Aug-24 09:30N 52°15' E 004°14'2 4.6
2019-Aug-24 09:00N 52°13' E 004°14'2 4.2
2019-Aug-24 08:30N 52°11' E 004°14'3 5.5
2019-Aug-24 08:00N 52°08' E 004°13'2 4.5
2019-Aug-24 07:30N 52°07' E 004°11'2 3.5
2019-Aug-24 07:00N 52°05' E 004°09'2 4.1
2019-Aug-24 06:30N 52°04' E 004°07'2 3.9
2019-Aug-24 06:00N 52°03' E 004°04'3 5.6
2019-Aug-24 05:30N 52°00' E 004°04'0 0.1
2019-Aug-24 04:58N 52°00' E 004°04'0 0.0
2019-Aug-24 04:31N 52°00' E 004°04'0 0.0
2019-Aug-24 04:01N 51°60' E 004°04'0 0.0
2019-Aug-24 03:31N 51°60' E 004°04'0 0.0
2019-Aug-24 03:00N 51°60' E 004°04'0 0.0
2019-Aug-24 02:30N 51°60' E 004°04'0 0.0
2019-Aug-24 02:00N 51°60' E 004°04'0 0.0
2019-Aug-24 01:30N 51°60' E 004°04'0 0.0
2019-Aug-24 01:00N 51°60' E 004°04'0 0.0
2019-Aug-24 00:30N 51°60' E 004°04'0 0.0
2019-Aug-24 00:00N 51°60' E 004°04'0 0.0
2019-Aug-23 23:30N 51°60' E 004°04'0 0.0
2019-Aug-23 23:00N 51°60' E 004°04'0 0.0
2019-Aug-23 22:30N 51°60' E 004°04'0 0.1
2019-Aug-23 22:00N 52°00' E 004°04'1 2.0
2019-Aug-23 21:30N 51°59' E 004°05'4 8.9
2019-Aug-23 21:00N 51°57' E 004°11'4 8.2
2019-Aug-23 20:30N 51°54' E 004°16'4 7.7
2019-Aug-23 20:00N 51°54' E 004°23'3 5.6
2019-Aug-23 19:30N 51°54' E 004°27'0 0.0
2019-Aug-23 18:59N 51°54' E 004°27'0 0.0
2019-Aug-23 18:29N 51°54' E 004°27'0 0.0
2019-Aug-23 17:59N 51°54' E 004°27'0 0.0
2019-Aug-23 17:29N 51°54' E 004°27'0 0.0
2019-Aug-23 16:56N 51°54' E 004°27'0 0.0
2019-Aug-23 16:29N 51°54' E 004°27'0 0.0
2019-Aug-23 15:59N 51°54' E 004°27'0 0.0
2019-Aug-23 15:29N 51°54' E 004°27'0 0.0
2019-Aug-23 15:00N 51°54' E 004°27'0 0.0
2019-Aug-23 14:28N 51°54' E 004°27'0 0.0
2019-Aug-23 13:58N 51°54' E 004°27'0 0.0
2019-Aug-23 13:28N 51°54' E 004°27'0 0.0
2019-Aug-23 12:58N 51°54' E 004°27'0 0.0
2019-Aug-23 12:28N 51°54' E 004°27'0 0.0
2019-Aug-23 11:58N 51°54' E 004°27'0 0.0
2019-Aug-23 11:28N 51°54' E 004°27'0 0.0
2019-Aug-23 10:58N 51°54' E 004°27'0 0.0
2019-Aug-23 10:28N 51°54' E 004°27'0 0.0
2019-Aug-23 09:58N 51°54' E 004°27'0 0.0
2019-Aug-23 09:28N 51°54' E 004°27'0 0.0
2019-Aug-23 08:55N 51°54' E 004°27'0 0.0
2019-Aug-23 08:28N 51°54' E 004°27'0 0.0
2019-Aug-23 07:58N 51°54' E 004°27'0 0.0
2019-Aug-23 07:28N 51°54' E 004°27'0 0.0
2019-Aug-23 06:58N 51°54' E 004°27'0 0.0
2019-Aug-23 06:28N 51°54' E 004°27'0 0.0
2019-Aug-23 05:58N 51°54' E 004°27'0 0.0
2019-Aug-23 05:28N 51°54' E 004°27'0 0.0
2019-Aug-23 04:58N 51°54' E 004°27'0 0.0
2019-Aug-23 04:28N 51°54' E 004°27'0 0.0
2019-Aug-23 03:59N 51°54' E 004°27'0 0.0
2019-Aug-23 03:31N 51°54' E 004°27'0 0.0
2019-Aug-23 03:00N 51°54' E 004°27'0 0.0
2019-Aug-23 02:31N 51°54' E 004°27'0 0.0
2019-Aug-23 02:01N 51°54' E 004°27'0 0.0
2019-Aug-23 01:30N 51°54' E 004°27'0 0.0
2019-Aug-23 01:01N 51°54' E 004°27'0 0.0
2019-Aug-23 00:31N 51°54' E 004°27'0 0.0
2019-Aug-23 00:00N 51°54' E 004°27'0 0.0
2019-Aug-22 23:31N 51°54' E 004°27'0 0.0
2019-Aug-22 23:01N 51°54' E 004°27'0 0.0
2019-Aug-22 22:31N 51°54' E 004°27'0 0.0
2019-Aug-22 22:00N 51°54' E 004°27'0 0.0
2019-Aug-22 21:31N 51°54' E 004°27'0 0.0
2019-Aug-22 21:01N 51°54' E 004°27'0 0.0
2019-Aug-22 20:31N 51°54' E 004°27'0 0.0
2019-Aug-22 20:01N 51°54' E 004°27'0 0.0
2019-Aug-22 19:31N 51°54' E 004°27'0 0.0
2019-Aug-22 19:01N 51°54' E 004°27'0 0.0
2019-Aug-22 18:31N 51°54' E 004°27'0 0.0
2019-Aug-22 18:00N 51°54' E 004°27'0 0.0
2019-Aug-22 17:31N 51°54' E 004°27'1 2.2
2019-Aug-22 17:00N 51°54' E 004°26'2 3.3
2019-Aug-22 16:31N 51°54' E 004°28'0 0.5
2019-Aug-22 16:00N 51°54' E 004°28'0 0.7
2019-Aug-22 15:30N 51°54' E 004°27'0 0.0
2019-Aug-22 15:00N 51°54' E 004°27'0 0.0
2019-Aug-22 14:30N 51°54' E 004°27'0 0.0
2019-Aug-22 14:00N 51°54' E 004°27'0 0.0
2019-Aug-22 13:30N 51°54' E 004°27'0 0.0
2019-Aug-22 13:00N 51°54' E 004°27'0 0.0
2019-Aug-22 12:30N 51°54' E 004°27'0 0.0
2019-Aug-22 12:00N 51°54' E 004°27'0 0.0
2019-Aug-22 11:30N 51°54' E 004°27'0 0.0
2019-Aug-22 11:00N 51°54' E 004°27'0 0.0
2019-Aug-22 10:30N 51°54' E 004°27'0 0.0
2019-Aug-22 10:00N 51°54' E 004°27'0 0.0
2019-Aug-22 09:30N 51°54' E 004°27'2 4.5
2019-Aug-22 09:00N 51°54' E 004°24'3 5.6
2019-Aug-22 08:30N 51°54' E 004°19'3 5.6
2019-Aug-22 08:00N 51°55' E 004°15'3 5.9
2019-Aug-22 07:30N 51°57' E 004°11'3 6.5
2019-Aug-22 07:00N 51°58' E 004°07'3 5.9
2019-Aug-22 06:31N 51°60' E 004°03'2 4.7
2019-Aug-22 06:00N 52°02' E 004°05'2 4.1
2019-Aug-22 05:30N 52°03' E 004°07'2 4.3
2019-Aug-22 05:00N 52°05' E 004°10'2 4.5
2019-Aug-22 04:30N 52°06' E 004°12'2 3.9
2019-Aug-22 04:01N 52°06' E 004°15'0 0.8
2019-Aug-22 03:29N 52°06' E 004°16'0 0.0
2019-Aug-22 02:59N 52°06' E 004°16'0 0.0
2019-Aug-22 02:29N 52°06' E 004°16'0 0.0
2019-Aug-22 01:59N 52°06' E 004°16'0 0.0
2019-Aug-22 01:29N 52°06' E 004°16'0 0.0
2019-Aug-22 00:58N 52°06' E 004°16'0 0.0
2019-Aug-22 00:28N 52°06' E 004°16'0 0.0
2019-Aug-21 23:58N 52°06' E 004°16'0 0.0
2019-Aug-21 23:28N 52°06' E 004°16'0 0.0
2019-Aug-21 22:58N 52°06' E 004°16'0 0.0
2019-Aug-21 22:28N 52°06' E 004°16'0 0.0
2019-Aug-21 21:58N 52°06' E 004°16'0 0.0
2019-Aug-21 21:28N 52°06' E 004°16'0 0.0
2019-Aug-21 20:58N 52°06' E 004°16'0 0.0
2019-Aug-21 20:28N 52°06' E 004°16'0 0.0
2019-Aug-21 19:58N 52°06' E 004°16'0 0.0
2019-Aug-21 19:28N 52°06' E 004°16'0 0.0
2019-Aug-21 18:58N 52°06' E 004°16'0 0.0
2019-Aug-21 18:28N 52°06' E 004°16'0 0.0
2019-Aug-21 17:58N 52°06' E 004°16'0 0.0
2019-Aug-21 17:28N 52°06' E 004°16'0 0.0
2019-Aug-21 16:58N 52°06' E 004°16'0 0.0
2019-Aug-21 16:28N 52°06' E 004°16'0 0.0
2019-Aug-21 15:58N 52°06' E 004°16'0 0.0
2019-Aug-21 15:28N 52°06' E 004°16'0 0.0
2019-Aug-21 14:28N 52°06' E 004°16'0 0.0
2019-Aug-21 13:58N 52°06' E 004°16'0 0.0
2019-Aug-21 13:28N 52°06' E 004°16'0 0.0
2019-Aug-21 12:58N 52°06' E 004°16'0 0.0
2019-Aug-21 12:28N 52°06' E 004°16'0 0.0
2019-Aug-21 11:58N 52°06' E 004°16'0 0.0
2019-Aug-21 11:28N 52°06' E 004°16'0 0.0
2019-Aug-21 10:58N 52°06' E 004°16'0 0.0
2019-Aug-21 10:28N 52°06' E 004°16'0 0.0
2019-Aug-21 09:58N 52°06' E 004°16'0 0.0
2019-Aug-21 09:28N 52°06' E 004°16'0 0.1
2019-Aug-21 09:00N 52°06' E 004°16'2 3.8
2019-Aug-21 08:31N 52°08' E 004°16'1 2.2
2019-Aug-21 08:00N 52°08' E 004°14'3 5.6
2019-Aug-21 07:30N 52°11' E 004°12'3 5.1
2019-Aug-21 07:00N 52°13' E 004°10'3 6.3
2019-Aug-21 06:31N 52°14' E 004°05'3 6.4
2019-Aug-21 06:00N 52°15' E 004°00'3 5.8
2019-Aug-21 05:30N 52°16' E 003°56'3 6.6
2019-Aug-21 05:00N 52°17' E 003°51'4 7.2
2019-Aug-21 04:30N 52°17' E 003°45'4 7.2
2019-Aug-21 04:00N 52°18' E 003°39'4 7.0
2019-Aug-21 03:29N 52°18' E 003°33'3 6.8
2019-Aug-21 02:58N 52°18' E 003°27'3 6.6
2019-Aug-21 02:29N 52°18' E 003°22'3 6.4
2019-Aug-21 02:00N 52°18' E 003°17'3 6.1
2019-Aug-21 01:30N 52°18' E 003°12'11 6.0
2019-Aug-20 23:43N 52°19' E 002°55'2 6.2
2019-Aug-20 23:27N 52°19' E 002°52'3 6.2
2019-Aug-20 23:00N 52°20' E 002°48'3 6.3
2019-Aug-20 22:30N 52°20' E 002°43'3 6.5
2019-Aug-20 22:00N 52°20' E 002°37'3 6.5
2019-Aug-20 21:30N 52°21' E 002°32'3 6.6
2019-Aug-20 21:00N 52°21' E 002°27'3 6.6
2019-Aug-20 20:30N 52°20' E 002°21'3 6.4
2019-Aug-20 20:00N 52°20' E 002°16'3 6.1
2019-Aug-20 19:30N 52°20' E 002°11'3 5.8
2019-Aug-20 19:00N 52°20' E 002°06'3 5.6
2019-Aug-20 18:30N 52°20' E 002°02'2 4.2
2019-Aug-20 18:00N 52°19' E 001°58'1 2.6
2019-Aug-20 17:30N 52°19' E 001°56'3 5.1
2019-Aug-20 17:00N 52°19' E 001°52'4 7.2
2019-Aug-20 16:30N 52°19' E 001°46'3 6.0
2019-Aug-20 16:00N 52°18' E 001°41'0 0.0
2019-Aug-20 15:30N 52°18' E 001°41'0 0.0
2019-Aug-20 15:00N 52°18' E 001°41'0 0.1
2019-Aug-20 14:30N 52°18' E 001°41'0 0.0
2019-Aug-20 14:00N 52°18' E 001°41'0 0.1
2019-Aug-20 13:30N 52°18' E 001°41'0 0.1
2019-Aug-20 13:00N 52°18' E 001°41'0 0.0
2019-Aug-20 12:30N 52°18' E 001°41'0 0.0
2019-Aug-20 12:00N 52°18' E 001°41'0 0.0
2019-Aug-20 11:30N 52°18' E 001°41'0 0.0
2019-Aug-20 11:00N 52°18' E 001°41'0 0.0
2019-Aug-20 10:30N 52°18' E 001°41'0 0.0
2019-Aug-20 10:00N 52°18' E 001°41'0 0.1
2019-Aug-20 09:30N 52°18' E 001°41'0 0.0
2019-Aug-20 09:00N 52°18' E 001°41'0 0.1
2019-Aug-20 08:27N 52°18' E 001°41'0 0.1
2019-Aug-20 08:00N 52°18' E 001°41'0 0.0
2019-Aug-20 07:30N 52°18' E 001°41'0 0.0
2019-Aug-20 06:57N 52°18' E 001°41'0 0.0
2019-Aug-20 06:27N 52°18' E 001°41'0 0.0
2019-Aug-20 06:00N 52°18' E 001°41'0 0.0
2019-Aug-20 05:30N 52°18' E 001°41'0 0.0
2019-Aug-20 05:00N 52°18' E 001°41'0 0.0
2019-Aug-20 04:30N 52°18' E 001°41'0 0.0
2019-Aug-20 04:00N 52°18' E 001°41'0 0.0
2019-Aug-20 03:27N 52°18' E 001°41'0 0.0
2019-Aug-20 03:00N 52°18' E 001°41'0 0.0
2019-Aug-20 02:30N 52°18' E 001°41'0 0.0
2019-Aug-20 01:57N 52°18' E 001°41'0 0.1
2019-Aug-20 01:30N 52°18' E 001°41'0 0.1
2019-Aug-20 01:00N 52°18' E 001°41'0 0.0
2019-Aug-20 00:30N 52°18' E 001°41'0 0.0
2019-Aug-20 00:00N 52°18' E 001°41'0 0.0
2019-Aug-19 23:30N 52°18' E 001°41'0 0.0
2019-Aug-19 23:00N 52°18' E 001°41'0 0.0
2019-Aug-19 22:27N 52°18' E 001°41'0 0.0
2019-Aug-19 22:00N 52°18' E 001°41'0 0.6
2019-Aug-19 21:30N 52°18' E 001°42'4 8.5
2019-Aug-19 21:01N 52°22' E 001°45'5 9.2
2019-Aug-19 20:30N 52°26' E 001°48'4 8.1
2019-Aug-19 20:00N 52°30' E 001°51'4 7.3
2019-Aug-19 19:30N 52°33' E 001°53'3 7.0
2019-Aug-19 19:00N 52°37' E 001°54'3 6.3
2019-Aug-19 18:30N 52°40' E 001°55'3 6.0
2019-Aug-19 18:00N 52°43' E 001°55'3 5.9
2019-Aug-19 17:30N 52°46' E 001°54'3 6.3
2019-Aug-19 17:00N 52°49' E 001°53'3 6.2
2019-Aug-19 16:30N 52°52' E 001°53'3 5.5
2019-Aug-19 16:00N 52°55' E 001°52'3 6.0
2019-Aug-19 15:30N 52°58' E 001°52'3 5.8
2019-Aug-19 15:00N 53°01' E 001°52'1 2.7
2019-Aug-19 14:30N 53°02' E 001°53'1 2.0
2019-Aug-19 14:00N 53°03' E 001°53'0 0.7
2019-Aug-19 13:30N 53°03' E 001°53'1 2.2
2019-Aug-19 13:00N 53°04' E 001°52'1 3.0
2019-Aug-19 12:30N 53°06' E 001°51'2 3.9
2019-Aug-19 12:00N 53°08' E 001°51'3 5.1
2019-Aug-19 11:30N 53°10' E 001°50'3 6.1
2019-Aug-19 11:00N 53°13' E 001°49'4 7.7
2019-Aug-19 10:30N 53°17' E 001°48'4 7.7
2019-Aug-19 10:00N 53°21' E 001°46'4 7.8
2019-Aug-19 09:26N 53°25' E 001°44'4 1.6
2019-Aug-19 06:33N 53°29' E 001°46'1 7.4
2019-Aug-19 06:23N 53°28' E 001°47'3 6.9
2019-Aug-19 05:57N 53°26' E 001°51'3 6.1
2019-Aug-19 05:30N 53°24' E 001°54'3 6.6
2019-Aug-19 05:00N 53°22' E 001°58'3 5.9
2019-Aug-19 04:30N 53°20' E 002°01'3 6.5
2019-Aug-19 04:00N 53°17' E 002°05'4 7.7
2019-Aug-19 03:28N 53°14' E 002°10'4 7.9
2019-Aug-19 02:58N 53°12' E 002°14'4 8.1
2019-Aug-19 02:29N 53°09' E 002°19'47 7.8
2019-Aug-18 20:30N 52°37' E 003°15'4 7.7
2019-Aug-18 20:00N 52°35' E 003°21'4 8.0
2019-Aug-18 19:29N 52°32' E 003°26'4 8.3
2019-Aug-18 19:00N 52°30' E 003°32'4 8.1
2019-Aug-18 18:29N 52°27' E 003°37'3 6.5
2019-Aug-18 18:00N 52°25' E 003°40'3 6.7
2019-Aug-18 17:30N 52°23' E 003°44'3 6.8
2019-Aug-18 17:00N 52°20' E 003°48'4 7.5
2019-Aug-18 16:30N 52°17' E 003°52'4 8.9
2019-Aug-18 16:00N 52°13' E 003°53'4 8.4
2019-Aug-18 15:30N 52°09' E 003°55'4 7.2
2019-Aug-18 15:00N 52°05' E 003°57'2 4.5
2019-Aug-18 14:30N 52°03' E 003°58'2 3.7
2019-Aug-18 14:00N 52°02' E 004°00'2 3.6
2019-Aug-18 13:30N 52°00' E 004°02'3 6.5
2019-Aug-18 13:00N 51°59' E 004°07'4 7.6
2019-Aug-18 12:30N 51°57' E 004°12'4 8.1
2019-Aug-18 12:00N 51°54' E 004°17'4 7.0
2019-Aug-18 11:30N 51°54' E 004°23'3 5.5
2019-Aug-18 10:58N 51°54' E 004°27'0 0.0
2019-Aug-18 10:28N 51°54' E 004°27'0 0.0
2019-Aug-18 09:58N 51°54' E 004°27'0 0.0
2019-Aug-18 09:28N 51°54' E 004°27'0 0.0
2019-Aug-18 08:58N 51°54' E 004°27'0 0.0
2019-Aug-18 08:28N 51°54' E 004°27'0 0.0
2019-Aug-18 07:59N 51°54' E 004°27'0 0.0
2019-Aug-18 06:59N 51°54' E 004°27'0 0.0
2019-Aug-18 06:29N 51°54' E 004°27'0 0.0
2019-Aug-18 05:59N 51°54' E 004°27'0 0.0
2019-Aug-18 05:29N 51°54' E 004°27'0 0.0
2019-Aug-18 04:59N 51°54' E 004°27'0 0.0
2019-Aug-18 04:29N 51°54' E 004°27'0 0.0
2019-Aug-18 03:59N 51°54' E 004°27'0 0.0
2019-Aug-18 03:29N 51°54' E 004°27'0 0.0
2019-Aug-18 02:59N 51°54' E 004°27'0 0.0
2019-Aug-18 02:29N 51°54' E 004°27'0 0.0
2019-Aug-18 01:59N 51°54' E 004°27'0 0.0
2019-Aug-18 01:29N 51°54' E 004°27'0 0.0
2019-Aug-18 00:59N 51°54' E 004°27'0 0.0
2019-Aug-18 00:28N 51°54' E 004°27'0 0.0
2019-Aug-17 23:58N 51°54' E 004°27'0 0.0
2019-Aug-17 23:28N 51°54' E 004°27'0 0.0
2019-Aug-17 22:58N 51°54' E 004°27'0 0.0
2019-Aug-17 22:28N 51°54' E 004°27'0 0.0
2019-Aug-17 21:58N 51°54' E 004°27'0 0.0
2019-Aug-17 21:28N 51°54' E 004°27'0 0.0
2019-Aug-17 20:58N 51°54' E 004°27'0 0.0
2019-Aug-17 20:28N 51°54' E 004°27'0 0.0
2019-Aug-17 19:58N 51°54' E 004°27'0 0.0
2019-Aug-17 19:28N 51°54' E 004°27'0 0.0
2019-Aug-17 18:58N 51°54' E 004°27'0 0.0
2019-Aug-17 18:28N 51°54' E 004°27'0 0.0
2019-Aug-17 17:00N 51°54' E 004°27'1 2.6
2019-Aug-17 16:31N 51°54' E 004°25'3 6.9
2019-Aug-17 16:00N 51°54' E 004°20'4 8.2
2019-Aug-17 15:30N 51°55' E 004°14'4 8.6
2019-Aug-17 15:01N 51°58' E 004°08'4 8.0
2019-Aug-17 14:31N 51°60' E 004°03'2 3.2
2019-Aug-17 14:00N 52°02' E 004°03'2 4.6
2019-Aug-17 13:31N 52°02' E 003°59'3 6.6
2019-Aug-17 13:01N 52°03' E 003°54'0 0.3
2019-Aug-17 12:31N 52°03' E 003°54'2 4.2
2019-Aug-17 12:01N 52°02' E 003°57'2 4.6
2019-Aug-17 11:31N 52°01' E 004°00'2 3.5
2019-Aug-17 11:00N 52°01' E 004°03'2 4.1
2019-Aug-17 10:31N 51°59' E 004°05'4 8.3
2019-Aug-17 10:00N 51°57' E 004°11'4 8.2
2019-Aug-17 09:31N 51°54' E 004°16'3 6.5
2019-Aug-17 09:00N 51°54' E 004°21'3 6.2
2019-Aug-17 08:30N 51°54' E 004°26'1 1.5
2019-Aug-17 07:58N 51°54' E 004°27'0 0.0
2019-Aug-17 07:28N 51°54' E 004°27'0 0.0
2019-Aug-17 06:58N 51°54' E 004°27'0 0.0
2019-Aug-17 06:28N 51°54' E 004°27'0 0.0
2019-Aug-17 05:58N 51°54' E 004°27'0 0.0
2019-Aug-17 05:28N 51°54' E 004°27'0 0.0
2019-Aug-17 04:58N 51°54' E 004°27'0 0.0
2019-Aug-17 04:28N 51°54' E 004°27'0 0.0
2019-Aug-17 03:58N 51°54' E 004°27'0 0.0
2019-Aug-17 03:28N 51°54' E 004°27'0 0.0
2019-Aug-17 02:58N 51°54' E 004°27'0 0.0
2019-Aug-17 02:28N 51°54' E 004°27'0 0.0
2019-Aug-17 01:58N 51°54' E 004°27'0 0.0
2019-Aug-17 01:28N 51°54' E 004°27'0 0.0
2019-Aug-17 00:58N 51°54' E 004°27'0 0.0
2019-Aug-17 00:28N 51°54' E 004°27'0 0.0
2019-Aug-16 23:58N 51°54' E 004°27'0 0.0
2019-Aug-16 23:28N 51°54' E 004°27'0 0.0
2019-Aug-16 22:58N 51°54' E 004°27'0 0.0
2019-Aug-16 22:28N 51°54' E 004°27'0 0.0
2019-Aug-16 21:58N 51°54' E 004°27'0 0.0
2019-Aug-16 21:28N 51°54' E 004°27'0 0.0
2019-Aug-16 20:58N 51°54' E 004°27'0 0.0
2019-Aug-16 20:28N 51°54' E 004°27'0 0.0
2019-Aug-16 19:58N 51°54' E 004°27'0 0.0
2019-Aug-16 19:28N 51°54' E 004°27'0 0.0
2019-Aug-16 18:58N 51°54' E 004°27'0 0.0
2019-Aug-16 18:28N 51°54' E 004°27'0 0.0
2019-Aug-16 17:58N 51°54' E 004°27'0 0.0
2019-Aug-16 17:28N 51°54' E 004°27'0 0.0
2019-Aug-16 17:01N 51°54' E 004°27'0 0.0
2019-Aug-16 16:31N 51°54' E 004°27'0 0.0
2019-Aug-16 16:00N 51°54' E 004°27'0 0.0
2019-Aug-16 15:30N 51°54' E 004°27'0 0.0
2019-Aug-16 15:00N 51°54' E 004°27'0 0.0
2019-Aug-16 14:30N 51°54' E 004°27'0 0.0
2019-Aug-16 14:00N 51°54' E 004°27'0 0.0
2019-Aug-16 13:30N 51°54' E 004°27'0 0.0
2019-Aug-16 12:57N 51°54' E 004°27'0 0.0
2019-Aug-16 12:27N 51°54' E 004°27'0 0.0
2019-Aug-16 12:00N 51°54' E 004°27'0 0.0
2019-Aug-16 11:30N 51°54' E 004°27'0 0.0
2019-Aug-16 11:00N 51°54' E 004°27'0 0.0
2019-Aug-16 10:30N 51°54' E 004°27'0 0.4
2019-Aug-16 10:01N 51°54' E 004°27'2 4.1
2019-Aug-16 09:30N 51°54' E 004°24'3 6.7
2019-Aug-16 09:00N 51°54' E 004°18'3 6.2
2019-Aug-16 08:30N 51°55' E 004°14'2 4.0
2019-Aug-16 08:00N 51°56' E 004°12'2 3.3
2019-Aug-16 07:30N 51°57' E 004°09'2 3.7
2019-Aug-16 07:00N 51°58' E 004°07'2 4.7
2019-Aug-16 06:30N 51°59' E 004°03'2 4.3
2019-Aug-16 06:00N 52°02' E 004°04'3 5.5
2019-Aug-16 05:30N 52°03' E 004°08'2 4.9
2019-Aug-16 05:00N 52°05' E 004°11'2 4.3
2019-Aug-16 04:30N 52°06' E 004°13'1 2.9
2019-Aug-16 04:00N 52°06' E 004°16'0 0.0
2019-Aug-16 03:30N 52°06' E 004°16'0 0.0
2019-Aug-16 03:00N 52°06' E 004°16'0 0.0
2019-Aug-16 02:30N 52°06' E 004°16'0 0.0
2019-Aug-16 02:00N 52°06' E 004°16'0 0.0
2019-Aug-16 01:30N 52°06' E 004°16'0 0.0
2019-Aug-16 01:00N 52°06' E 004°16'0 0.0
2019-Aug-16 00:30N 52°06' E 004°16'0 0.0
2019-Aug-16 00:00N 52°06' E 004°16'0 0.0
2019-Aug-15 23:30N 52°06' E 004°16'0 0.0
2019-Aug-15 23:00N 52°06' E 004°16'0 0.0
2019-Aug-15 22:30N 52°06' E 004°16'0 0.0
2019-Aug-15 22:00N 52°06' E 004°16'0 0.0
2019-Aug-15 21:30N 52°06' E 004°16'0 0.0
2019-Aug-15 21:00N 52°06' E 004°16'0 0.0
2019-Aug-15 20:30N 52°06' E 004°16'0 0.0
2019-Aug-15 20:00N 52°06' E 004°16'0 0.0
2019-Aug-15 19:30N 52°06' E 004°16'0 0.0
2019-Aug-15 19:00N 52°06' E 004°16'0 0.0
2019-Aug-15 18:30N 52°06' E 004°16'0 0.0
2019-Aug-15 18:00N 52°06' E 004°16'0 0.0
2019-Aug-15 17:30N 52°06' E 004°16'0 0.0
2019-Aug-15 17:00N 52°06' E 004°16'0 0.0
2019-Aug-15 16:30N 52°06' E 004°16'0 0.0
2019-Aug-15 16:00N 52°06' E 004°16'0 0.0
2019-Aug-15 15:30N 52°06' E 004°16'0 0.0
2019-Aug-15 15:00N 52°06' E 004°16'0 0.0
2019-Aug-15 14:30N 52°06' E 004°16'0 0.0
2019-Aug-15 14:00N 52°06' E 004°16'0 0.0
2019-Aug-15 13:30N 52°06' E 004°16'0 0.0
2019-Aug-15 13:00N 52°06' E 004°16'0 0.0
2019-Aug-15 12:31N 52°06' E 004°16'3 6.1
2019-Aug-15 12:00N 52°05' E 004°11'3 5.3
2019-Aug-15 11:30N 52°04' E 004°07'2 4.4
2019-Aug-15 11:00N 52°06' E 004°06'4 8.6
2019-Aug-15 10:30N 52°10' E 004°03'4 8.7
2019-Aug-15 10:00N 52°14' E 003°59'4 8.0
2019-Aug-15 09:31N 52°17' E 003°56'4 7.4
2019-Aug-15 09:01N 52°20' E 003°51'4 7.4
2019-Aug-15 08:30N 52°22' E 003°47'4 7.7
2019-Aug-15 08:00N 52°25' E 003°42'4 7.8
2019-Aug-15 07:30N 52°27' E 003°37'4 7.5
2019-Aug-15 06:59N 52°30' E 003°32'4 7.3
2019-Aug-15 06:30N 52°32' E 003°29'6 1.9
2019-Aug-15 03:11N 52°35' E 003°19'2 5.0
2019-Aug-15 02:51N 52°34' E 003°21'2 5.8
2019-Aug-15 02:28N 52°32' E 003°23'3 6.0
2019-Aug-15 01:59N 52°30' E 003°26'3 6.2
2019-Aug-15 01:30N 52°27' E 003°29'3 5.6
2019-Aug-15 01:00N 52°25' E 003°31'3 6.0
2019-Aug-15 00:30N 52°23' E 003°35'3 6.6
2019-Aug-15 00:00N 52°21' E 003°38'4 7.7
2019-Aug-14 23:30N 52°18' E 003°43'4 7.3
2019-Aug-14 23:00N 52°16' E 003°49'4 7.1
2019-Aug-14 22:30N 52°15' E 003°54'4 8.2
2019-Aug-14 22:00N 52°14' E 004°00'4 8.0
2019-Aug-14 21:30N 52°13' E 004°07'2 4.8
2019-Aug-14 21:00N 52°13' E 004°10'3 6.4
2019-Aug-14 20:30N 52°13' E 004°05'3 6.6
2019-Aug-14 20:00N 52°13' E 003°60'  

Dump ship's entire track history